This is the latest recevied weather packets stored in our database for station/object WX7EM. If no packets are shown the sender has not sent any weather packets the latest 10 day(s).
| Time | Temp. | Humidity | Pressure | Rain* | Wind** | Luminosity | Snow |
|---|---|---|---|---|---|---|---|
| 1777687837 | 16.67° C | 73% | 1013.8 hPa | 0 mm | - | 42 W/m² | - |
| 1777687534 | 17.22° C | 73% | 1013.9 hPa | 0 mm | - | 45 W/m² | - |
| 1777687231 | 17.78° C | 72% | 1013.8 hPa | 0 mm | - | 50 W/m² | - |
| 1777686929 | 18.33° C | 70% | 1013.9 hPa | 0 mm | - | 52 W/m² | - |
| 1777686625 | 18.33° C | 67% | 1013.9 hPa | 0 mm | - | 59 W/m² | - |
| 1777686322 | 18.89° C | 65% | 1013.8 hPa | 0 mm | - | 75 W/m² | - |
| 1777686019 | 19.44° C | 66% | 1013.7 hPa | 0 mm | - | 89 W/m² | - |
| 1777685714 | 18.89° C | 66% | 1013.9 hPa | 0 mm | - | 90 W/m² | - |
| 1777685411 | 19.44° C | 66% | 1013.9 hPa | 0 mm | - | 85 W/m² | - |
| 1777685108 | 20° C | 65% | 1013.6 hPa | 0 mm | - | 96 W/m² | - |
| 1777684806 | 20° C | 63% | 1013.9 hPa | 0 mm | - | 105 W/m² | - |
| 1777684502 | 20° C | 63% | 1013.8 hPa | 0 mm | - | 117 W/m² | - |
| 1777684199 | 20° C | 63% | 1013.7 hPa | 0 mm | - | 138 W/m² | - |
| 1777683896 | 20° C | 62% | 1013.8 hPa | 0 mm | - | 147 W/m² | - |
| 1777683592 | 20.56° C | 61% | 1013.7 hPa | 0 mm | - | 149 W/m² | - |
| 1777683290 | 20.56° C | 61% | 1013.8 hPa | 0 mm | - | 184 W/m² | - |
| 1777682988 | 21.11° C | 59% | 1013.8 hPa | 0 mm | - | 181 W/m² | - |
| 1777682683 | 21.11° C | 60% | 1013.7 hPa | 0 mm | - | 226 W/m² | - |
| 1777682381 | 21.11° C | 60% | 1014 hPa | 0 mm | - | 209 W/m² | - |
| 1777682078 | 21.11° C | 60% | 1013.6 hPa | 0 mm | - | 156 W/m² | - |
| 1777681774 | 20.56° C | 60% | 1014.1 hPa | 0 mm | - | 155 W/m² | - |
| 1777681471 | 21.11° C | 61% | 1013.9 hPa | 0 mm | - | 157 W/m² | - |
| 1777681169 | 20.56° C | 64% | 1014 hPa | 0 mm | - | 130 W/m² | - |
| 1777680866 | 21.11° C | 63% | 1014 hPa | 0 mm | - | 139 W/m² | - |
| 1777680564 | 21.11° C | 61% | 1014 hPa | 0 mm | - | 135 W/m² | - |
* Rain latest hour (hover to see other rain measurements)
** Current wind speed in m/s (hover to see current wind gust speed)